Time;durP1;ratioP1;P1;durP2;ratioP2;P2;SDS_P1;SDS_P2;PMS_P1;PMS_P2;Temp;Humidity;BMP_temperature;BMP_pressure;BME280_temperature;BME280_humidity;BME280_pressure;Samples;Min_cycle;Max_cycle;Signal;HPM_P1;HPM_P2
2021/11/28 00:01:40;;;;;;;;;;;;;;;;;;5057376;28;19913;-75
2021/11/28 00:04:05;;;;;;;;;;;;;;;;;;5055332;28;19963;-76
2021/11/28 00:06:31;;;;;;;;;;;;;;;;;;5055198;28;19920;-76
2021/11/28 00:11:45;;;;;;;;;;;;;;;;;;5056763;28;19913;-76
2021/11/28 00:14:13;;;;;;;;;;;;;;;;;;5056451;28;19913;-76
2021/11/28 00:16:39;;;;;;;;;;;;;;;;;;5057289;28;20391;-76
2021/11/28 00:19:05;;;;;;;;;;;;;;;;;;5055206;28;19962;-76
2021/11/28 00:21:31;;;;;;;;;;;;;;;;;;5056200;28;20393;-75
2021/11/28 00:23:57;;;;;;;;;;;;;;;;;;5039424;28;20294;-75
2021/11/28 00:26:22;;;;;;;;;;;;;;;;;;5039946;28;19916;-76
2021/11/28 00:28:47;;;;;;;;;;;;;;;;;;5056430;28;19919;-75
2021/11/28 00:31:13;;;;;;;;;;;;;;;;;;5057265;28;19990;-76
2021/11/28 00:33:38;;;;;;;;;;;;;;;;;;5056857;28;19912;-76
2021/11/28 00:36:04;;;;;;;;;;;;;;;;;;5056829;28;19974;-76
2021/11/28 00:38:29;;;;;;;;;;;;;;;;;;5055523;28;19909;-76
2021/11/28 00:40:55;;;;;;;;;;;;;;;;;;5056474;28;19924;-76
2021/11/28 00:43:21;;;;;;;;;;;;;;;;;;5054710;28;19948;-75
2021/11/28 00:45:47;;;;;;;;;;;;;;;;;;5054718;28;20348;-76
2021/11/28 00:48:13;;;;;;;;;;;;;;;;;;5038490;28;19917;-76
2021/11/28 00:53:04;;;;;;;;;;;;;;;;;;5056986;28;19917;-76
2021/11/28 00:55:31;;;;;;;;;;;;;;;;;;5055243;28;19912;-75
2021/11/28 00:57:57;;;;;;;;;;;;;;;;;;5055071;28;19928;-75
2021/11/28 01:00:23;;;;;;;;;;;;;;;;;;5054862;28;20015;-76
2021/11/28 01:02:48;;;;;;;;;;;;;;;;;;5054203;28;19921;-76
2021/11/28 01:05:14;;;;;;;;;;;;;;;;;;5053867;28;20355;-76
2021/11/28 01:07:39;;;;;;;;;;;;;;;;;;5054705;28;20359;-77
2021/11/28 01:10:08;;;;;;;;;;;;;;;;;;5053716;28;19921;-77
2021/11/28 01:12:33;;;;;;;;;;;;;;;;;;5053886;28;19913;-76
2021/11/28 01:14:59;;;;;;;;;;;;;;;;;;5053571;28;20327;-76
2021/11/28 01:17:25;;;;;;;;;;;;;;;;;;5053533;28;19924;-76
2021/11/28 01:19:51;;;;;;;;;;;;;;;;;;5053503;28;19952;-76
2021/11/28 01:22:16;;;;;;;;;;;;;;;;;;5054922;28;19963;-77
2021/11/28 01:24:43;;;;;;;;;;;;;;;;;;5052887;28;20263;-76
2021/11/28 01:27:10;;;;;;;;;;;;;;;;;;5054802;28;19966;-77
2021/11/28 01:29:36;;;;;;;;;;;;;;;;;;5053354;28;20010;-76
2021/11/28 01:32:02;;;;;;;;;;;;;;;;;;5053798;28;19916;-77
2021/11/28 01:34:28;;;;;;;;;;;;;;;;;;5053088;28;19912;-77
2021/11/28 01:36:54;;;;;;;;;;;;;;;;;;5054746;28;19917;-77
2021/11/28 01:39:19;;;;;;;;;;;;;;;;;;5054365;28;19935;-77
2021/11/28 01:41:45;;;;;;;;;;;;;;;;;;5053020;28;19919;-77
2021/11/28 01:44:12;;;;;;;;;;;;;;;;;;5053254;28;19954;-76
2021/11/28 01:46:37;;;;;;;;;;;;;;;;;;5052561;28;19960;-76
2021/11/28 01:49:03;;;;;;;;;;;;;;;;;;5051730;28;19952;-76
2021/11/28 01:51:29;;;;;;;;;;;;;;;;;;5053823;28;19913;-76
2021/11/28 01:53:54;;;;;;;;;;;;;;;;;;5052762;28;20240;-77
2021/11/28 01:56:20;;;;;;;;;;;;;;;;;;5052873;28;19958;-76
2021/11/28 01:58:45;;;;;;;;;;;;;;;;;;5052857;28;19920;-76
2021/11/28 02:01:13;;;;;;;;;;;;;;;;;;5052476;28;19912;-76
2021/11/28 02:03:41;;;;;;;;;;;;;;;;;;5052030;28;20558;-77
2021/11/28 02:06:07;;;;;;;;;;;;;;;;;;5053868;28;20022;-77
2021/11/28 02:08:33;;;;;;;;;;;;;;;;;;5052634;28;19920;-77
2021/11/28 02:10:59;;;;;;;;;;;;;;;;;;5052700;28;19912;-77
2021/11/28 02:13:27;;;;;;;;;;;;;;;;;;5051615;28;20386;-77
2021/11/28 02:15:52;;;;;;;;;;;;;;;;;;5052421;28;19920;-76
2021/11/28 02:18:18;;;;;;;;;;;;;;;;;;5052607;28;19939;-76
2021/11/28 02:20:45;;;;;;;;;;;;;;;;;;5052423;28;20416;-77
2021/11/28 02:23:11;;;;;;;;;;;;;;;;;;5052351;28;19916;-77
2021/11/28 02:25:36;;;;;;;;;;;;;;;;;;5051584;28;19913;-76
2021/11/28 02:28:02;;;;;;;;;;;;;;;;;;5052387;28;19967;-76
2021/11/28 02:30:28;;;;;;;;;;;;;;;;;;5053660;28;19913;-76
2021/11/28 02:32:57;;;;;;;;;;;;;;;;;;5052350;28;19917;-76
2021/11/28 02:35:23;;;;;;;;;;;;;;;;;;5051770;28;20347;-77
2021/11/28 02:37:49;;;;;;;;;;;;;;;;;;5053673;28;20272;-76
2021/11/28 02:40:16;;;;;;;;;;;;;;;;;;5052188;28;19951;-76
2021/11/28 02:42:42;;;;;;;;;;;;;;;;;;5052229;28;19913;-77
2021/11/28 02:45:10;;;;;;;;;;;;;;;;;;5051900;28;20274;-76
2021/11/28 02:47:36;;;;;;;;;;;;;;;;;;5052213;28;19923;-76
2021/11/28 02:50:03;;;;;;;;;;;;;;;;;;5051161;28;19912;-76
2021/11/28 02:52:29;;;;;;;;;;;;;;;;;;5052268;28;19974;-76
2021/11/28 02:54:54;;;;;;;;;;;;;;;;;;5052404;28;20285;-77
2021/11/28 02:57:19;;;;;;;;;;;;;;;;;;5051822;28;20354;-76
2021/11/28 02:59:45;;;;;;;;;;;;;;;;;;5051997;28;19948;-77
2021/11/28 03:02:10;;;;;;;;;;;;;;;;;;5052398;28;20347;-76
2021/11/28 03:04:53;;;;;;;;;;;;;;;;;;5052216;28;19920;-76
2021/11/28 03:07:20;;;;;;;;;;;;;;;;;;5053156;28;19917;-77
2021/11/28 03:09:45;;;;;;;;;;;;;;;;;;5052095;28;19920;-76
2021/11/28 03:12:11;;;;;;;;;;;;;;;;;;5051615;28;19909;-76
2021/11/28 03:14:37;;;;;;;;;;;;;;;;;;5052914;28;20350;-76
2021/11/28 03:17:03;;;;;;;;;;;;;;;;;;5051804;28;19999;-77
2021/11/28 03:19:28;;;;;;;;;;;;;;;;;;5052028;28;19963;-77
2021/11/28 03:21:54;;;;;;;;;;;;;;;;;;5051679;28;19917;-76
2021/11/28 03:24:19;;;;;;;;;;;;;;;;;;5052657;28;19960;-76
2021/11/28 03:26:45;;;;;;;;;;;;;;;;;;5056817;28;19971;-77
2021/11/28 03:29:13;;;;;;;;;;;;;;;;;;5056890;28;20378;-77
2021/11/28 03:32:01;;;;;;;;;;;;;;;;;;5056665;28;19959;-76
2021/11/28 03:34:45;;;;;;;;;;;;;;;;;;5056864;28;19963;-76
2021/11/28 03:37:18;;;;;;;;;;;;;;;;;;5054869;28;20286;-76
2021/11/28 03:39:43;;;;;;;;;;;;;;;;;;5055718;28;19917;-76
2021/11/28 03:42:08;;;;;;;;;;;;;;;;;;5056272;28;20015;-77
2021/11/28 03:44:37;;;;;;;;;;;;;;;;;;5055378;28;19985;-77
2021/11/28 03:47:12;;;;;;;;;;;;;;;;;;5055242;28;19917;-77
2021/11/28 03:49:38;;;;;;;;;;;;;;;;;;5055099;28;19935;-76
2021/11/28 03:52:04;;;;;;;;;;;;;;;;;;5055418;28;19917;-76
2021/11/28 03:54:29;;;;;;;;;;;;;;;;;;5055277;28;19920;-76
2021/11/28 03:56:54;;;;;;;;;;;;;;;;;;5055060;28;20266;-77
2021/11/28 03:59:22;;;;;;;;;;;;;;;;;;5055401;28;20007;-76
2021/11/28 04:01:48;;;;;;;;;;;;;;;;;;5054809;28;19912;-77
2021/11/28 04:04:15;;;;;;;;;;;;;;;;;;5055005;28;19923;-77
2021/11/28 04:07:00;;;;;;;;;;;;;;;;;;5055874;28;20351;-76
2021/11/28 04:09:26;;;;;;;;;;;;;;;;;;5054956;28;19939;-76
2021/11/28 04:11:52;;;;;;;;;;;;;;;;;;5054868;28;20366;-76
2021/11/28 04:14:19;;;;;;;;;;;;;;;;;;5054233;28;19916;-76
2021/11/28 04:16:46;;;;;;;;;;;;;;;;;;5054903;28;19913;-76
2021/11/28 04:19:13;;;;;;;;;;;;;;;;;;5054497;28;19919;-76
2021/11/28 04:21:44;;;;;;;;;;;;;;;;;;5054627;28;20355;-77
2021/11/28 04:24:10;;;;;;;;;;;;;;;;;;5053889;28;19918;-76
2021/11/28 04:26:37;;;;;;;;;;;;;;;;;;5054506;28;19917;-76
2021/11/28 04:29:03;;;;;;;;;;;;;;;;;;5054635;28;20424;-77
2021/11/28 04:31:28;;;;;;;;;;;;;;;;;;5054706;28;19920;-77
2021/11/28 04:33:54;;;;;;;;;;;;;;;;;;5054531;28;19924;-76
2021/11/28 04:36:21;;;;;;;;;;;;;;;;;;5054023;28;19913;-77
2021/11/28 04:38:47;;;;;;;;;;;;;;;;;;5055781;28;19919;-77
2021/11/28 04:41:14;;;;;;;;;;;;;;;;;;5053562;28;19924;-77
2021/11/28 04:43:45;;;;;;;;;;;;;;;;;;5054316;28;19913;-77
2021/11/28 04:46:10;;;;;;;;;;;;;;;;;;5053820;28;19916;-76
2021/11/28 04:48:35;;;;;;;;;;;;;;;;;;5054219;28;19912;-76
2021/11/28 04:51:12;;;;;;;;;;;;;;;;;;5054031;28;19913;-76
2021/11/28 04:53:38;;;;;;;;;;;;;;;;;;5054213;28;19919;-76
2021/11/28 04:56:05;;;;;;;;;;;;;;;;;;5053969;28;19917;-76
2021/11/28 04:58:30;;;;;;;;;;;;;;;;;;5053981;28;20281;-77
2021/11/28 05:00:56;;;;;;;;;;;;;;;;;;5053329;28;19919;-76
2021/11/28 05:03:21;;;;;;;;;;;;;;;;;;5053883;28;19959;-77
2021/11/28 05:06:05;;;;;;;;;;;;;;;;;;5055170;28;19919;-76
2021/11/28 05:08:50;;;;;;;;;;;;;;;;;;5054921;28;19913;-76
2021/11/28 05:11:16;;;;;;;;;;;;;;;;;;5053640;28;19999;-76
2021/11/28 05:13:41;;;;;;;;;;;;;;;;;;5056186;28;20290;-77
2021/11/28 05:16:06;;;;;;;;;;;;;;;;;;5054135;28;19920;-75
2021/11/28 05:18:50;;;;;;;;;;;;;;;;;;5055861;28;20010;-76
2021/11/28 05:21:31;;;;;;;;;;;;;;;;;;5054747;28;20385;-76
2021/11/28 05:23:57;;;;;;;;;;;;;;;;;;5054733;28;19912;-76
2021/11/28 05:26:26;;;;;;;;;;;;;;;;;;5034868;28;20390;-76
2021/11/28 05:28:51;;;;;;;;;;;;;;;;;;5034306;28;19913;-76
2021/11/28 05:31:19;;;;;;;;;;;;;;;;;;5034549;28;19963;-76
2021/11/28 05:34:24;;;;;;;;;;;;;;;;;;5014288;28;19914;-76
2021/11/28 05:37:09;;;;;;;;;;;;;;;;;;5000573;28;20391;-76
2021/11/28 05:39:38;;;;;;;;;;;;;;;;;;5019309;28;19945;-76
2021/11/28 05:42:04;;;;;;;;;;;;;;;;;;5034684;28;19913;-76
2021/11/28 05:44:29;;;;;;;;;;;;;;;;;;5034125;28;20306;-75
2021/11/28 05:47:30;;;;;;;;;;;;;;;;;;5034360;28;19924;-76
2021/11/28 05:50:09;;;;;;;;;;;;;;;;;;5053990;28;20535;-76
2021/11/28 05:52:41;;;;;;;;;;;;;;;;;;5052528;28;19912;-76
2021/11/28 05:55:07;;;;;;;;;;;;;;;;;;5051589;28;19913;-76
2021/11/28 05:57:33;;;;;;;;;;;;;;;;;;5053278;28;19913;-76
2021/11/28 05:59:59;;;;;;;;;;;;;;;;;;5054318;28;19931;-76
2021/11/28 06:02:25;;;;;;;;;;;;;;;;;;5052705;28;20345;-76
2021/11/28 06:05:08;;;;;;;;;;;;;;;;;;5051995;28;20007;-76
2021/11/28 06:07:47;;;;;;;;;;;;;;;;;;5052488;28;19917;-76
2021/11/28 06:10:13;;;;;;;;;;;;;;;;;;5036395;28;20389;-76
2021/11/28 06:12:38;;;;;;;;;;;;;;;;;;5036455;28;20394;-76
2021/11/28 06:15:04;;;;;;;;;;;;;;;;;;5052621;28;20275;-76
2021/11/28 06:17:50;;;;;;;;;;;;;;;;;;5053355;28;20399;-76
2021/11/28 06:20:52;;;;;;;;;;;;;;;;;;5052950;28;19952;-76
2021/11/28 06:23:25;;;;;;;;;;;;;;;;;;5052512;28;19913;-76
2021/11/28 06:25:51;;;;;;;;;;;;;;;;;;5051685;28;20339;-75
2021/11/28 06:28:17;;;;;;;;;;;;;;;;;;5052909;28;19919;-76
2021/11/28 06:30:42;;;;;;;;;;;;;;;;;;5052943;28;19912;-76
2021/11/28 06:33:28;;;;;;;;;;;;;;;;;;5041335;28;20362;-75
2021/11/28 06:36:12;;;;;;;;;;;;;;;;;;5053038;28;19967;-75
2021/11/28 06:39:00;;;;;;;;;;;;;;;;;;5053209;28;20321;-76
2021/11/28 06:41:44;;;;;;;;;;;;;;;;;;5054165;28;20089;-75
2021/11/28 06:44:09;;;;;;;;;;;;;;;;;;5052755;28;19927;-76
2021/11/28 06:46:36;;;;;;;;;;;;;;;;;;5051652;28;20058;-76
2021/11/28 06:49:02;;;;;;;;;;;;;;;;;;5051818;28;19913;-75
2021/11/28 06:51:31;;;;;;;;;;;;;;;;;;5054291;28;19913;-75
2021/11/28 06:54:03;;;;;;;;;;;;;;;;;;5052541;28;19966;-75
2021/11/28 06:56:34;;;;;;;;;;;;;;;;;;5054126;28;19917;-75
2021/11/28 06:59:06;;;;;;;;;;;;;;;;;;5053531;28;19917;-76
2021/11/28 07:01:34;;;;;;;;;;;;;;;;;;5056923;28;19916;-75
2021/11/28 07:04:19;;;;;;;;;;;;;;;;;;5055892;28;20375;-75
2021/11/28 07:07:07;;;;;;;;;;;;;;;;;;5057580;28;19960;-75
2021/11/28 07:09:35;;;;;;;;;;;;;;;;;;5057146;28;20366;-75
2021/11/28 07:12:00;;;;;;;;;;;;;;;;;;5056890;28;19974;-75
2021/11/28 07:14:26;;;;;;;;;;;;;;;;;;5056851;28;20377;-75
2021/11/28 07:16:51;;;;;;;;;;;;;;;;;;5040640;28;19918;-75
2021/11/28 07:19:17;;;;;;;;;;;;;;;;;;5056570;28;20392;-75
2021/11/28 07:22:15;;;;;;;;;;;;;;;;;;5056623;28;20094;-75
2021/11/28 07:24:42;;;;;;;;;;;;;;;;;;5055958;28;19959;-75
2021/11/28 07:27:08;;;;;;;;;;;;;;;;;;5056903;28;19956;-75
2021/11/28 07:29:34;;;;;;;;;;;;;;;;;;5056103;28;19952;-77
2021/11/28 07:32:00;;;;;;;;;;;;;;;;;;5058002;28;19919;-77
2021/11/28 07:35:04;;;;;;;;;;;;;;;;;;5055182;28;19917;-78
2021/11/28 07:37:58;;;;;;;;;;;;;;;;;;5040569;28;19912;-77
2021/11/28 07:40:24;;;;;;;;;;;;;;;;;;5040799;28;19912;-77
2021/11/28 07:43:20;;;;;;;;;;;;;;;;;;5059667;28;19912;-78
2021/11/28 07:46:05;;;;;;;;;;;;;;;;;;5061275;28;19971;-78
2021/11/28 07:49:00;;;;;;;;;;;;;;;;;;5050972;28;19948;-79
2021/11/28 07:51:26;;;;;;;;;;;;;;;;;;5060311;28;19935;-76
2021/11/28 07:53:52;;;;;;;;;;;;;;;;;;5044358;28;20382;-79
2021/11/28 07:56:22;;;;;;;;;;;;;;;;;;5063742;28;20366;-79
2021/11/28 07:59:05;;;;;;;;;;;;;;;;;;5061530;28;19920;-78
2021/11/28 08:01:31;;;;;;;;;;;;;;;;;;5059634;28;19912;-77
2021/11/28 08:04:20;;;;;;;;;;;;;;;;;;5046460;28;20290;-76
2021/11/28 08:07:06;;;;;;;;;;;;;;;;;;5037843;28;19924;-75
2021/11/28 08:09:35;;;;;;;;;;;;;;;;;;5038033;28;19921;-75
2021/11/28 08:12:09;;;;;;;;;;;;;;;;;;5036928;28;19913;-77
2021/11/28 08:14:35;;;;;;;;;;;;;;;;;;5035160;28;19913;-77
2021/11/28 08:17:01;;;;;;;;;;;;;;;;;;5038810;28;19909;-76
2021/11/28 08:19:26;;;;;;;;;;;;;;;;;;5037386;28;20329;-77
2021/11/28 08:21:51;;;;;;;;;;;;;;;;;;5039089;28;19963;-77
2021/11/28 08:24:17;;;;;;;;;;;;;;;;;;5020724;28;19956;-78
2021/11/28 08:26:43;;;;;;;;;;;;;;;;;;5021508;28;19913;-79
2021/11/28 08:29:08;;;;;;;;;;;;;;;;;;5038397;28;19917;-78
2021/11/28 08:31:38;;;;;;;;;;;;;;;;;;5042113;28;19913;-79
2021/11/28 08:34:22;;;;;;;;;;;;;;;;;;5051325;28;19966;-77
2021/11/28 08:36:56;;;;;;;;;;;;;;;;;;5064853;28;19999;-77
2021/11/28 08:39:28;;;;;;;;;;;;;;;;;;5066563;28;19916;-77
2021/11/28 08:42:07;;;;;;;;;;;;;;;;;;5066676;28;19920;-77
2021/11/28 08:44:33;;;;;;;;;;;;;;;;;;5062910;28;19958;-77
2021/11/28 08:46:58;;;;;;;;;;;;;;;;;;5058879;28;19917;-76
2021/11/28 08:49:24;;;;;;;;;;;;;;;;;;5062446;28;19992;-77
2021/11/28 08:51:49;;;;;;;;;;;;;;;;;;5059502;28;19908;-76
2021/11/28 08:54:15;;;;;;;;;;;;;;;;;;5057728;28;20313;-75
2021/11/28 08:56:41;;;;;;;;;;;;;;;;;;5058553;28;19913;-75
2021/11/28 08:59:07;;;;;;;;;;;;;;;;;;5054137;28;19947;-75
2021/11/28 09:01:32;;;;;;;;;;;;;;;;;;5055255;28;20343;-76
2021/11/28 09:03:58;;;;;;;;;;;;;;;;;;5054249;28;19920;-75
2021/11/28 09:06:23;;;;;;;;;;;;;;;;;;5053856;28;19993;-76
2021/11/28 09:08:50;;;;;;;;;;;;;;;;;;5057507;28;19913;-78
2021/11/28 09:11:40;;;;;;;;;;;;;;;;;;5054610;28;20002;-79
2021/11/28 09:14:58;;;;;;;;;;;;;;;;;;5050874;28;19920;-80
2021/11/28 09:17:58;;;;;;;;;;;;;;;;;;5038461;28;19939;-80
2021/11/28 09:20:25;;;;;;;;;;;;;;;;;;5044287;28;19920;-81
2021/11/28 09:25:17;;;;;;;;;;;;;;;;;;5056039;28;20002;-77
2021/11/28 09:27:44;;;;;;;;;;;;;;;;;;5043335;28;19923;-79
2021/11/28 09:30:10;;;;;;;;;;;;;;;;;;5047447;28;19913;-79
2021/11/28 09:32:35;;;;;;;;;;;;;;;;;;5059343;28;19916;-78
2021/11/28 09:35:01;;;;;;;;;;;;;;;;;;5053883;28;19913;-77
2021/11/28 09:37:26;;;;;;;;;;;;;;;;;;5056923;28;19921;-78
2021/11/28 09:39:51;;;;;;;;;;;;;;;;;;5058316;28;19999;-80
2021/11/28 09:42:21;;;;;;;;;;;;;;;;;;5058209;28;20362;-78
2021/11/28 09:44:57;;;;;;;;;;;;;;;;;;5094199;27;19913;-77
2021/11/28 09:47:23;;;;;;;;;;;;;;;;;;5095210;28;19920;-81
2021/11/28 09:49:49;;;;;;;;;;;;;;;;;;5083246;28;19939;-81
2021/11/28 09:52:19;;;;;;;;;;;;;;;;;;5073514;28;20426;-77
2021/11/28 09:54:45;;;;;;;;;;;;;;;;;;5071008;28;19924;-75
2021/11/28 09:57:14;;;;;;;;;;;;;;;;;;5072071;28;19932;-79
2021/11/28 09:59:41;;;;;;;;;;;;;;;;;;5074757;28;19960;-76
2021/11/28 10:02:07;;;;;;;;;;;;;;;;;;5075085;28;19935;-82
2021/11/28 10:04:32;;;;;;;;;;;;;;;;;;5097665;28;19920;-80
2021/11/28 10:06:58;;;;;;;;;;;;;;;;;;5112319;28;19923;-77
2021/11/28 10:09:24;;;;;;;;;;;;;;;;;;5112588;28;19920;-78
2021/11/28 10:11:49;;;;;;;;;;;;;;;;;;5114569;28;19916;-81
2021/11/28 10:14:15;;;;;;;;;;;;;;;;;;5115304;28;19926;-79
2021/11/28 10:16:42;;;;;;;;;;;;;;;;;;5101329;28;20406;-79
2021/11/28 10:19:08;;;;;;;;;;;;;;;;;;5094218;28;19920;-80
2021/11/28 10:21:33;;;;;;;;;;;;;;;;;;5094330;28;19967;-79
2021/11/28 10:24:08;;;;;;;;;;;;;;;;;;5097067;28;20365;-78
2021/11/28 10:26:34;;;;;;;;;;;;;;;;;;5097091;28;19976;-80
2021/11/28 10:29:10;;;;;;;;;;;;;;;;;;5095626;28;19946;-80
2021/11/28 10:31:48;;;;;;;;;;;;;;;;;;5091820;28;19916;-79
2021/11/28 10:34:18;;;;;;;;;;;;;;;;;;5094068;28;19916;-76
2021/11/28 10:36:44;;;;;;;;;;;;;;;;;;5112904;28;19916;-79
2021/11/28 10:39:21;;;;;;;;;;;;;;;;;;5096503;28;20239;-78
2021/11/28 10:41:54;;;;;;;;;;;;;;;;;;5115938;28;20374;-79
2021/11/28 10:44:20;;;;;;;;;;;;;;;;;;5133329;28;19920;-79
2021/11/28 10:46:46;;;;;;;;;;;;;;;;;;5145588;27;19919;-80
2021/11/28 10:49:16;;;;;;;;;;;;;;;;;;5144518;27;19915;-80
2021/11/28 10:51:44;;;;;;;;;;;;;;;;;;5144732;27;19916;-79
2021/11/28 10:54:20;;;;;;;;;;;;;;;;;;5142588;27;19922;-79
2021/11/28 10:56:46;;;;;;;;;;;;;;;;;;5129958;28;19916;-79
2021/11/28 10:59:19;;;;;;;;;;;;;;;;;;5128787;28;19922;-79
2021/11/28 11:01:44;;;;;;;;;;;;;;;;;;5127867;28;19961;-79
2021/11/28 11:04:17;;;;;;;;;;;;;;;;;;5125940;28;19920;-79
2021/11/28 11:06:43;;;;;;;;;;;;;;;;;;5126881;28;19978;-79
2021/11/28 11:09:21;;;;;;;;;;;;;;;;;;5125086;28;19968;-79
2021/11/28 11:11:47;;;;;;;;;;;;;;;;;;5123020;28;20064;-79
2021/11/28 11:14:13;;;;;;;;;;;;;;;;;;5122600;28;20553;-79
2021/11/28 11:16:40;;;;;;;;;;;;;;;;;;5122455;28;20412;-79
2021/11/28 11:19:28;;;;;;;;;;;;;;;;;;5121664;28;19954;-80
2021/11/28 11:22:02;;;;;;;;;;;;;;;;;;5119238;28;19923;-78
2021/11/28 11:24:27;;;;;;;;;;;;;;;;;;5117936;28;19920;-78
2021/11/28 11:26:53;;;;;;;;;;;;;;;;;;5120880;28;19918;-79
2021/11/28 11:29:18;;;;;;;;;;;;;;;;;;5120975;28;19916;-78
2021/11/28 11:31:53;;;;;;;;;;;;;;;;;;5119230;28;20388;-77
2021/11/28 11:34:22;;;;;;;;;;;;;;;;;;5118909;28;20335;-78
2021/11/28 11:36:51;;;;;;;;;;;;;;;;;;5111430;28;19986;-77
2021/11/28 11:39:17;;;;;;;;;;;;;;;;;;5096681;28;20369;-79
2021/11/28 11:41:42;;;;;;;;;;;;;;;;;;5079666;28;19920;-78
2021/11/28 11:44:08;;;;;;;;;;;;;;;;;;5077811;28;19920;-77
2021/11/28 11:46:33;;;;;;;;;;;;;;;;;;5078521;28;20523;-81
2021/11/28 11:48:59;;;;;;;;;;;;;;;;;;5080292;28;19951;-79
2021/11/28 11:51:24;;;;;;;;;;;;;;;;;;5081194;28;19955;-79
2021/11/28 11:53:50;;;;;;;;;;;;;;;;;;5102450;28;19916;-80
2021/11/28 11:56:16;;;;;;;;;;;;;;;;;;5102968;28;19966;-82
2021/11/28 11:58:58;;;;;;;;;;;;;;;;;;5082531;28;20301;-82
2021/11/28 12:01:27;;;;;;;;;;;;;;;;;;5086791;28;19916;-80
2021/11/28 12:03:54;;;;;;;;;;;;;;;;;;5125507;28;19919;-80
2021/11/28 12:06:48;;;;;;;;;;;;;;;;;;5120430;28;19913;-79
2021/11/28 12:09:22;;;;;;;;;;;;;;;;;;5121208;28;20325;-81
2021/11/28 12:11:54;;;;;;;;;;;;;;;;;;5125236;28;19916;-80
2021/11/28 12:14:20;;;;;;;;;;;;;;;;;;5116222;28;19919;-77
2021/11/28 12:16:45;;;;;;;;;;;;;;;;;;5098047;28;20018;-76
2021/11/28 12:19:30;;;;;;;;;;;;;;;;;;5097915;28;19923;-78
2021/11/28 12:21:56;;;;;;;;;;;;;;;;;;5100871;28;19930;-80
2021/11/28 12:24:23;;;;;;;;;;;;;;;;;;5100487;28;19920;-79
2021/11/28 12:26:53;;;;;;;;;;;;;;;;;;5096959;28;19959;-79
2021/11/28 12:29:18;;;;;;;;;;;;;;;;;;5097945;28;19923;-81
2021/11/28 12:31:48;;;;;;;;;;;;;;;;;;5097747;28;19916;-80
2021/11/28 12:34:14;;;;;;;;;;;;;;;;;;5094831;28;19923;-78
2021/11/28 12:36:40;;;;;;;;;;;;;;;;;;5096985;28;19923;-83
2021/11/28 12:39:06;;;;;;;;;;;;;;;;;;5101435;28;20408;-81
2021/11/28 12:41:43;;;;;;;;;;;;;;;;;;5102215;28;20014;-81
2021/11/28 12:44:08;;;;;;;;;;;;;;;;;;5100056;28;20370;-84
2021/11/28 12:46:50;;;;;;;;;;;;;;;;;;5100989;28;20011;-80
2021/11/28 12:49:23;;;;;;;;;;;;;;;;;;5099770;28;19969;-85
2021/11/28 12:51:48;;;;;;;;;;;;;;;;;;5100543;28;19969;-85
2021/11/28 12:54:22;;;;;;;;;;;;;;;;;;5080711;28;20285;-84
2021/11/28 12:57:07;;;;;;;;;;;;;;;;;;5099159;28;19963;-81
2021/11/28 12:59:33;;;;;;;;;;;;;;;;;;5120339;28;20292;-83
2021/11/28 13:02:00;;;;;;;;;;;;;;;;;;5110339;28;19919;-82
2021/11/28 13:04:41;;;;;;;;;;;;;;;;;;5113611;28;19920;-82
2021/11/28 13:07:25;;;;;;;;;;;;;;;;;;5075015;28;19916;-81
2021/11/28 13:09:54;;;;;;;;;;;;;;;;;;5080007;28;19920;-80
2021/11/28 13:12:24;;;;;;;;;;;;;;;;;;5094706;28;19915;-84
2021/11/28 13:14:50;;;;;;;;;;;;;;;;;;5097405;28;19916;-79
2021/11/28 13:17:19;;;;;;;;;;;;;;;;;;5095610;28;19962;-80
2021/11/28 13:19:46;;;;;;;;;;;;;;;;;;5097044;28;19939;-79
2021/11/28 13:22:36;;;;;;;;;;;;;;;;;;5097526;28;19927;-79
2021/11/28 13:25:35;;;;;;;;;;;;;;;;;;5099231;28;19973;-79
2021/11/28 13:28:21;;;;;;;;;;;;;;;;;;5099209;28;19934;-79
2021/11/28 13:30:51;;;;;;;;;;;;;;;;;;5098462;28;20014;-79
2021/11/28 13:33:21;;;;;;;;;;;;;;;;;;5099666;28;20728;-79
2021/11/28 13:35:57;;;;;;;;;;;;;;;;;;5119591;28;19920;-79
2021/11/28 13:38:24;;;;;;;;;;;;;;;;;;5118652;28;19916;-78
2021/11/28 13:41:08;;;;;;;;;;;;;;;;;;5116528;28;19915;-79
2021/11/28 13:43:42;;;;;;;;;;;;;;;;;;5117123;28;20376;-78
2021/11/28 13:46:07;;;;;;;;;;;;;;;;;;5117786;28;19923;-78
2021/11/28 13:48:50;;;;;;;;;;;;;;;;;;5117267;28;19915;-78
2021/11/28 13:51:35;;;;;;;;;;;;;;;;;;5095576;28;19927;-78
2021/11/28 13:54:00;;;;;;;;;;;;;;;;;;5094732;28;19976;-78
2021/11/28 13:56:38;;;;;;;;;;;;;;;;;;5097802;28;20326;-80
2021/11/28 13:59:04;;;;;;;;;;;;;;;;;;5099145;28;20366;-79
2021/11/28 14:01:29;;;;;;;;;;;;;;;;;;5097279;28;20293;-80
2021/11/28 14:03:55;;;;;;;;;;;;;;;;;;5106479;28;19939;-79
2021/11/28 14:06:20;;;;;;;;;;;;;;;;;;5118397;28;19969;-80
2021/11/28 14:08:45;;;;;;;;;;;;;;;;;;5119221;28;19919;-79
2021/11/28 14:11:11;;;;;;;;;;;;;;;;;;5117295;28;19920;-80
2021/11/28 14:13:42;;;;;;;;;;;;;;;;;;5118673;28;19916;-79
2021/11/28 14:16:09;;;;;;;;;;;;;;;;;;5118772;28;19941;-80
2021/11/28 14:18:43;;;;;;;;;;;;;;;;;;5111383;28;19982;-80
2021/11/28 14:21:08;;;;;;;;;;;;;;;;;;5098726;28;19966;-80
2021/11/28 14:23:34;;;;;;;;;;;;;;;;;;5098422;28;19973;-80
2021/11/28 14:25:59;;;;;;;;;;;;;;;;;;5096857;28;19916;-80
2021/11/28 14:28:32;;;;;;;;;;;;;;;;;;5096457;28;19923;-80
2021/11/28 14:31:02;;;;;;;;;;;;;;;;;;5100462;28;19916;-80
2021/11/28 14:33:27;;;;;;;;;;;;;;;;;;5101905;28;19916;-80
2021/11/28 14:35:53;;;;;;;;;;;;;;;;;;5101718;28;20384;-80
2021/11/28 14:38:27;;;;;;;;;;;;;;;;;;5101453;28;19916;-80
2021/11/28 14:40:57;;;;;;;;;;;;;;;;;;5100367;28;19974;-80
2021/11/28 14:43:23;;;;;;;;;;;;;;;;;;5101501;28;20388;-80
2021/11/28 14:46:01;;;;;;;;;;;;;;;;;;5100471;28;19916;-80
2021/11/28 14:48:26;;;;;;;;;;;;;;;;;;5101583;28;20373;-80
2021/11/28 14:50:53;;;;;;;;;;;;;;;;;;5101673;28;19912;-80
2021/11/28 14:53:20;;;;;;;;;;;;;;;;;;5101101;28;20003;-80
2021/11/28 14:55:46;;;;;;;;;;;;;;;;;;5101964;28;19955;-79
2021/11/28 14:58:28;;;;;;;;;;;;;;;;;;5106727;28;19916;-81
2021/11/28 15:01:04;;;;;;;;;;;;;;;;;;5105517;28;19938;-80
2021/11/28 15:03:29;;;;;;;;;;;;;;;;;;5084318;28;19920;-80
2021/11/28 15:06:02;;;;;;;;;;;;;;;;;;5107483;28;19954;-81
2021/11/28 15:08:27;;;;;;;;;;;;;;;;;;5112487;28;19951;-81
2021/11/28 15:10:54;;;;;;;;;;;;;;;;;;5130419;28;19922;-80
2021/11/28 15:13:27;;;;;;;;;;;;;;;;;;5127702;28;19915;-80
2021/11/28 15:15:55;;;;;;;;;;;;;;;;;;5127499;28;19923;-80
2021/11/28 15:18:20;;;;;;;;;;;;;;;;;;5107286;28;19915;-81
2021/11/28 15:20:46;;;;;;;;;;;;;;;;;;5122928;28;20388;-80
2021/11/28 15:23:11;;;;;;;;;;;;;;;;;;5119837;28;19935;-79
2021/11/28 15:25:36;;;;;;;;;;;;;;;;;;5118035;28;19984;-77
2021/11/28 15:28:02;;;;;;;;;;;;;;;;;;5123176;28;20390;-79
2021/11/28 15:30:29;;;;;;;;;;;;;;;;;;5128989;28;19915;-79
2021/11/28 15:32:55;;;;;;;;;;;;;;;;;;5115243;28;19916;-77
2021/11/28 15:35:22;;;;;;;;;;;;;;;;;;5114882;28;19969;-78
2021/11/28 15:37:48;;;;;;;;;;;;;;;;;;5114474;28;20365;-77
2021/11/28 15:40:15;;;;;;;;;;;;;;;;;;5096837;28;19957;-77
2021/11/28 15:42:41;;;;;;;;;;;;;;;;;;5095640;28;19962;-76
2021/11/28 15:45:07;;;;;;;;;;;;;;;;;;5094808;28;19931;-76
2021/11/28 15:47:32;;;;;;;;;;;;;;;;;;5094547;28;19965;-78
2021/11/28 15:49:58;;;;;;;;;;;;;;;;;;5095713;28;19916;-77
2021/11/28 15:52:23;;;;;;;;;;;;;;;;;;5095605;28;20278;-77
2021/11/28 15:54:49;;;;;;;;;;;;;;;;;;5095074;28;19963;-77
2021/11/28 15:57:14;;;;;;;;;;;;;;;;;;5095822;28;19925;-77
2021/11/28 15:59:39;;;;;;;;;;;;;;;;;;5095607;28;19916;-77
2021/11/28 16:02:05;;;;;;;;;;;;;;;;;;5095715;28;19923;-76
2021/11/28 16:04:33;;;;;;;;;;;;;;;;;;5087767;28;19955;-77
2021/11/28 16:07:00;;;;;;;;;;;;;;;;;;5085537;28;19920;-77
2021/11/28 16:09:25;;;;;;;;;;;;;;;;;;5086269;28;19916;-78
2021/11/28 16:11:51;;;;;;;;;;;;;;;;;;5082390;28;20305;-76
2021/11/28 16:14:16;;;;;;;;;;;;;;;;;;5084717;28;19952;-77
2021/11/28 16:16:42;;;;;;;;;;;;;;;;;;5083340;28;19927;-77
2021/11/28 16:19:07;;;;;;;;;;;;;;;;;;5083519;28;19917;-76
2021/11/28 16:21:33;;;;;;;;;;;;;;;;;;5080259;28;20003;-77
2021/11/28 16:23:58;;;;;;;;;;;;;;;;;;5087186;28;19912;-77
2021/11/28 16:26:26;;;;;;;;;;;;;;;;;;5085120;28;20293;-77
2021/11/28 16:28:52;;;;;;;;;;;;;;;;;;5082544;28;19915;-76
2021/11/28 16:31:18;;;;;;;;;;;;;;;;;;5084174;28;20263;-77
2021/11/28 16:33:43;;;;;;;;;;;;;;;;;;5084160;28;20369;-77
2021/11/28 16:36:08;;;;;;;;;;;;;;;;;;5083343;28;20003;-76
2021/11/28 16:38:34;;;;;;;;;;;;;;;;;;5080854;28;19916;-77
2021/11/28 16:40:59;;;;;;;;;;;;;;;;;;5087735;28;19916;-77
2021/11/28 16:43:25;;;;;;;;;;;;;;;;;;5086335;28;19938;-76
2021/11/28 16:45:51;;;;;;;;;;;;;;;;;;5081827;28;19923;-77
2021/11/28 16:48:16;;;;;;;;;;;;;;;;;;5084533;28;19923;-77
2021/11/28 16:50:42;;;;;;;;;;;;;;;;;;5092129;28;19948;-77
2021/11/28 16:53:08;;;;;;;;;;;;;;;;;;5094544;28;19916;-76
2021/11/28 16:55:34;;;;;;;;;;;;;;;;;;5094804;28;20407;-77
2021/11/28 16:58:00;;;;;;;;;;;;;;;;;;5094061;28;20274;-77
2021/11/28 17:00:25;;;;;;;;;;;;;;;;;;5094647;28;20353;-77
2021/11/28 17:02:50;;;;;;;;;;;;;;;;;;5093932;28;19958;-77
2021/11/28 17:05:16;;;;;;;;;;;;;;;;;;5113188;28;19919;-77
2021/11/28 17:07:41;;;;;;;;;;;;;;;;;;5114980;28;19922;-77
2021/11/28 17:10:08;;;;;;;;;;;;;;;;;;5113468;28;19919;-77